createdAt,value
2022-08-17T00:01:52.146Z,10.05
2022-08-17T00:04:40.229Z,10.02
2022-08-17T00:07:27.264Z,10.23
2022-08-17T00:10:14.445Z,11.70
2022-08-17T00:13:06.588Z,11.35
2022-08-17T00:15:58.516Z,10.38
2022-08-17T00:19:02.048Z,10.85
2022-08-17T00:22:32.106Z,10.90
2022-08-17T00:25:07.583Z,12.18
2022-08-17T00:27:54.631Z,12.18
2022-08-17T00:30:51.005Z,11.18
2022-08-17T00:33:42.360Z,11.18
2022-08-17T00:36:29.850Z,11.55
2022-08-17T00:39:16.838Z,11.38
2022-08-17T00:42:16.091Z,11.80
2022-08-17T00:45:05.970Z,10.90
2022-08-17T00:47:52.909Z,11.68
2022-08-17T00:50:48.456Z,11.32
2022-08-17T00:53:39.909Z,10.60
2022-08-17T00:56:34.976Z,11.55
2022-08-17T00:59:25.450Z,11.50
2022-08-17T01:02:15.081Z,12.98
2022-08-17T01:05:02.064Z,10.68
2022-08-17T01:07:50.866Z,11.48
2022-08-17T01:10:58.443Z,11.77
2022-08-17T01:13:47.851Z,10.60
2022-08-17T01:16:37.302Z,10.73
2022-08-17T01:19:28.726Z,11.52
2022-08-17T01:22:24.009Z,13.18
2022-08-17T01:25:12.742Z,13.60
2022-08-17T01:28:00.315Z,11.98
2022-08-17T01:30:57.253Z,11.98
2022-08-17T01:33:46.028Z,12.32
2022-08-17T01:36:33.150Z,11.38
2022-08-17T01:39:40.982Z,11.48
2022-08-17T01:42:36.322Z,12.50
2022-08-17T01:45:33.609Z,13.68
2022-08-17T01:48:20.957Z,12.23
2022-08-17T01:51:07.994Z,11.82
2022-08-17T01:53:58.024Z,11.57
2022-08-17T01:56:49.474Z,11.15
2022-08-17T01:59:37.013Z,11.07
2022-08-17T02:02:31.328Z,11.60
2022-08-17T02:05:18.667Z,10.85
2022-08-17T02:08:07.232Z,11.50
2022-08-17T02:10:54.988Z,11.20
2022-08-17T02:13:46.428Z,11.88
2022-08-17T02:16:37.641Z,12.98
2022-08-17T02:19:25.316Z,11.13
2022-08-17T02:22:12.558Z,11.32
2022-08-17T02:25:02.425Z,11.73
2022-08-17T02:27:49.636Z,12.27
2022-08-17T02:30:50.094Z,11.13
2022-08-17T02:33:43.997Z,11.88
2022-08-17T02:36:31.021Z,11.48
2022-08-17T02:39:18.571Z,11.70
2022-08-17T02:42:06.099Z,12.18
2022-08-17T02:44:53.128Z,13.57
2022-08-17T02:47:41.135Z,13.43
2022-08-17T02:50:28.661Z,13.35
2022-08-17T02:53:16.269Z,13.23
2022-08-17T02:56:03.776Z,13.18
2022-08-17T02:58:50.759Z,13.38
2022-08-17T03:01:37.864Z,16.50
2022-08-17T03:04:25.011Z,14.45
2022-08-17T03:07:11.942Z,13.38
2022-08-17T03:09:59.209Z,14.07
2022-08-17T03:12:46.869Z,12.52
2022-08-17T03:15:34.692Z,12.82
2022-08-17T03:18:25.491Z,12.77
2022-08-17T03:21:13.135Z,12.15
2022-08-17T03:24:00.171Z,13.15
2022-08-17T03:26:47.324Z,12.60
2022-08-17T03:29:34.275Z,12.75
2022-08-17T03:32:21.356Z,11.13
2022-08-17T03:35:09.756Z,12.20
2022-08-17T03:38:01.211Z,12.45
2022-08-17T03:40:58.109Z,13.73
2022-08-17T03:43:46.191Z,14.43
2022-08-17T03:46:51.620Z,14.98
2022-08-17T03:49:57.436Z,14.32
2022-08-17T03:53:03.184Z,13.68
2022-08-17T03:56:09.165Z,14.32
2022-08-17T03:58:56.144Z,16.67
2022-08-17T04:01:49.029Z,15.57
2022-08-17T04:04:40.178Z,15.82
2022-08-17T04:07:29.307Z,15.93
2022-08-17T04:10:16.331Z,14.90
2022-08-17T04:13:03.853Z,15.15
2022-08-17T04:15:51.033Z,13.90
2022-08-17T04:18:38.003Z,15.10
2022-08-17T04:21:25.083Z,13.55
2022-08-17T04:24:11.999Z,15.00
2022-08-17T04:26:58.955Z,14.10
2022-08-17T04:29:54.802Z,13.98
2022-08-17T04:33:06.370Z,15.88
2022-08-17T04:35:57.894Z,15.05
2022-08-17T04:38:46.473Z,14.65
2022-08-17T04:41:52.038Z,14.85
2022-08-17T04:44:38.981Z,16.35
2022-08-17T04:47:25.875Z,16.58
2022-08-17T04:50:12.832Z,13.05
2022-08-17T04:53:00.013Z,13.02
2022-08-17T04:55:47.920Z,14.45
2022-08-17T04:58:34.891Z,13.15
2022-08-17T05:01:24.533Z,14.18
2022-08-17T05:04:21.410Z,12.82
2022-08-17T05:07:24.639Z,14.65
2022-08-17T05:10:13.468Z,13.13
2022-08-17T05:13:03.715Z,15.05
2022-08-17T05:15:55.009Z,16.48
2022-08-17T05:18:42.499Z,15.13
2022-08-17T05:21:29.766Z,18.10
2022-08-17T05:24:39.864Z,17.73
2022-08-17T05:27:23.662Z,19.77
2022-08-17T05:30:11.140Z,24.40
2022-08-17T05:33:14.502Z,22.38
2022-08-17T05:36:03.484Z,23.13
2022-08-17T05:38:50.580Z,24.77
2022-08-17T05:41:37.568Z,20.20
2022-08-17T05:44:24.494Z,23.92
2022-08-17T05:47:11.574Z,23.48
2022-08-17T05:49:59.451Z,22.08
2022-08-17T05:52:53.118Z,24.52
2022-08-17T05:56:06.538Z,26.23
2022-08-17T05:59:42.712Z,30.35
2022-08-17T06:02:50.564Z,32.20
2022-08-17T06:05:54.191Z,31.98
2022-08-17T06:08:51.713Z,30.13
2022-08-17T06:11:55.048Z,31.70
2022-08-17T06:15:07.448Z,30.30
2022-08-17T06:18:00.441Z,31.02
2022-08-17T06:20:53.359Z,29.15
2022-08-17T06:24:13.068Z,26.58
2022-08-17T06:27:36.873Z,27.65
2022-08-17T06:30:27.028Z,27.70
2022-08-17T06:33:25.777Z,27.92
2022-08-17T06:36:43.667Z,27.75
2022-08-17T06:39:45.808Z,26.95
2022-08-17T06:42:59.902Z,28.17
2022-08-17T06:46:07.631Z,30.10
2022-08-17T06:49:07.861Z,29.52
2022-08-17T06:51:58.158Z,28.27
2022-08-17T06:54:57.110Z,26.90
2022-08-17T06:57:51.018Z,25.85
2022-08-17T07:00:44.296Z,24.45
2022-08-17T07:03:59.412Z,23.50
2022-08-17T07:07:01.333Z,22.75
2022-08-17T07:09:48.672Z,21.50
2022-08-17T07:12:40.812Z,20.38
2022-08-17T07:15:42.235Z,20.70
2022-08-17T07:18:33.054Z,18.45
2022-08-17T07:21:40.859Z,20.58
2022-08-17T07:24:35.381Z,21.80
2022-08-17T07:27:27.478Z,19.08
2022-08-17T07:30:37.176Z,18.20
2022-08-17T07:33:36.745Z,18.10
2022-08-17T07:36:29.799Z,17.40
2022-08-17T07:39:28.857Z,17.80
2022-08-17T07:42:15.832Z,17.80
2022-08-17T07:45:23.243Z,17.92
2022-08-17T07:48:19.342Z,16.73
2022-08-17T07:51:38.966Z,16.60
2022-08-17T07:54:36.936Z,15.45
2022-08-17T07:57:30.232Z,15.43
2022-08-17T08:00:32.501Z,14.50
2022-08-17T08:03:27.127Z,15.82
2022-08-17T08:06:24.853Z,14.68
2022-08-17T08:09:38.338Z,15.00
2022-08-17T08:12:43.905Z,13.23
2022-08-17T08:15:40.802Z,14.25
2022-08-17T08:18:54.451Z,13.77
2022-08-17T08:21:56.377Z,11.80
2022-08-17T08:25:02.840Z,12.82
2022-08-17T08:28:08.743Z,12.95
2022-08-17T08:31:42.065Z,12.05
2022-08-17T08:35:01.262Z,13.02
2022-08-17T08:38:19.931Z,11.00
2022-08-17T08:41:26.196Z,12.30
2022-08-17T08:44:18.937Z,10.55
2022-08-17T08:48:05.130Z,11.25
2022-08-17T08:51:02.509Z,11.80
2022-08-17T08:54:03.941Z,11.45
2022-08-17T08:57:22.351Z,12.40
2022-08-17T09:00:10.006Z,10.10
2022-08-17T09:03:08.356Z,9.85
2022-08-17T09:06:37.581Z,10.43
2022-08-17T09:09:34.933Z,8.95
2022-08-17T09:12:31.539Z,7.97
2022-08-17T09:15:25.546Z,8.50
2022-08-17T09:19:00.699Z,9.27
2022-08-17T09:21:55.344Z,8.38
2022-08-17T09:24:57.078Z,8.02
2022-08-17T09:28:03.666Z,8.63
2022-08-17T09:30:55.124Z,8.48
2022-08-17T09:33:47.624Z,7.97
2022-08-17T09:36:47.659Z,7.95
2022-08-17T09:39:45.429Z,7.95
2022-08-17T09:42:42.115Z,8.48
2022-08-17T09:45:45.057Z,8.13
2022-08-17T09:48:35.403Z,8.95
2022-08-17T09:51:27.229Z,8.82
2022-08-17T09:54:39.127Z,8.82
2022-08-17T09:58:04.883Z,9.02
2022-08-17T10:01:02.792Z,9.20
2022-08-17T10:04:05.475Z,8.32
2022-08-17T10:07:20.382Z,8.05
2022-08-17T10:10:20.934Z,7.70
2022-08-17T10:13:39.194Z,7.82
2022-08-17T10:16:26.093Z,8.30
2022-08-17T10:19:35.900Z,8.63
2022-08-17T10:23:26.663Z,8.00
2022-08-17T10:26:20.455Z,8.00
2022-08-17T10:29:11.194Z,7.72
2022-08-17T10:32:04.233Z,8.95
2022-08-17T10:35:08.699Z,7.68
2022-08-17T10:38:24.323Z,7.13
2022-08-17T10:41:21.009Z,8.25
2022-08-17T10:44:39.608Z,7.88
2022-08-17T10:47:56.058Z,7.05
2022-08-17T10:50:57.576Z,7.38
2022-08-17T10:53:48.540Z,6.40
2022-08-17T10:56:58.537Z,7.32
2022-08-17T10:59:47.057Z,6.75
2022-08-17T11:02:52.801Z,6.75
2022-08-17T11:05:55.443Z,6.80
2022-08-17T11:08:57.550Z,6.70
2022-08-17T11:12:19.665Z,6.53
2022-08-17T11:15:31.248Z,7.35
2022-08-17T11:18:44.424Z,6.65
2022-08-17T11:22:09.286Z,6.38
2022-08-17T11:25:18.711Z,6.50
2022-08-17T11:28:15.845Z,6.38
2022-08-17T11:31:38.891Z,6.35
2022-08-17T11:34:28.221Z,5.68
2022-08-17T11:37:44.303Z,6.13
2022-08-17T11:40:57.740Z,5.80
2022-08-17T11:44:29.131Z,5.70
2022-08-17T11:48:23.803Z,5.80
2022-08-17T11:51:35.570Z,6.03
2022-08-17T11:54:33.605Z,6.20
2022-08-17T11:57:27.208Z,6.60
2022-08-17T12:00:45.099Z,5.95
2022-08-17T12:03:32.160Z,6.57
2022-08-17T12:06:34.839Z,6.22
2022-08-17T12:09:25.018Z,5.85
2022-08-17T12:12:29.565Z,5.72
2022-08-17T12:15:19.506Z,5.95
2022-08-17T12:18:06.448Z,6.55
2022-08-17T12:21:25.396Z,6.38
2022-08-17T12:24:36.066Z,6.57
2022-08-17T12:28:05.416Z,9.80
2022-08-17T12:30:56.189Z,8.57
2022-08-17T12:33:45.999Z,8.07
2022-08-17T12:36:33.546Z,9.00
2022-08-17T12:39:25.084Z,8.68
2022-08-17T12:42:23.504Z,7.70
2022-08-17T12:45:27.352Z,7.20
2022-08-17T12:48:24.184Z,7.78
2022-08-17T12:51:12.965Z,8.68
2022-08-17T12:53:59.955Z,7.88
2022-08-17T12:56:47.735Z,7.43
2022-08-17T12:59:39.606Z,7.97
2022-08-17T13:02:47.847Z,8.40
2022-08-17T13:05:41.609Z,7.50
2022-08-17T13:08:32.292Z,7.68
2022-08-17T13:11:22.346Z,8.40
2022-08-17T13:14:10.632Z,8.70
2022-08-17T13:17:01.478Z,8.45
2022-08-17T13:19:50.695Z,7.80
2022-08-17T13:22:38.907Z,6.82
2022-08-17T13:25:27.254Z,7.70
2022-08-17T13:28:35.530Z,7.70
2022-08-17T13:31:32.208Z,7.55
2022-08-17T13:34:33.625Z,8.02
2022-08-17T13:37:26.856Z,7.22
2022-08-17T13:40:44.691Z,8.00
2022-08-17T13:43:40.767Z,7.78
2022-08-17T13:46:32.889Z,8.38
2022-08-17T13:49:21.315Z,7.70
2022-08-17T13:52:32.020Z,8.65
2022-08-17T13:55:22.612Z,8.15
2022-08-17T13:58:09.584Z,7.95
2022-08-17T14:00:56.921Z,8.80
2022-08-17T14:03:44.347Z,8.38
2022-08-17T14:06:52.095Z,8.23
2022-08-17T14:09:47.354Z,8.88
2022-08-17T14:12:35.379Z,9.35
2022-08-17T14:15:24.438Z,8.88
2022-08-17T14:18:55.667Z,8.95
2022-08-17T14:21:40.464Z,9.43
2022-08-17T14:24:41.239Z,9.15
2022-08-17T14:27:33.964Z,9.05
2022-08-17T14:30:30.795Z,9.57
2022-08-17T14:33:24.668Z,9.68
2022-08-17T14:36:11.689Z,10.13
2022-08-17T14:38:58.688Z,8.93
2022-08-17T14:41:46.019Z,9.13
2022-08-17T14:44:33.012Z,9.13
2022-08-17T14:47:20.073Z,8.30
2022-08-17T14:50:11.280Z,8.40
2022-08-17T14:52:58.331Z,8.60
2022-08-17T14:55:50.925Z,8.95
2022-08-17T14:58:38.971Z,8.60
2022-08-17T15:01:27.093Z,8.18
2022-08-17T15:04:18.425Z,8.40
2022-08-17T15:07:06.381Z,8.45
2022-08-17T15:09:53.350Z,8.18
2022-08-17T15:12:41.301Z,8.68
2022-08-17T15:15:29.279Z,8.57
2022-08-17T15:18:16.570Z,8.15
2022-08-17T15:21:05.847Z,8.73
2022-08-17T15:23:52.804Z,8.60
2022-08-17T15:26:40.552Z,8.27
2022-08-17T15:29:27.914Z,8.52
2022-08-17T15:32:27.300Z,8.25
2022-08-17T15:35:14.340Z,8.32
2022-08-17T15:38:10.764Z,7.97
2022-08-17T15:40:58.883Z,7.95
2022-08-17T15:43:48.555Z,8.40
2022-08-17T15:46:36.618Z,7.80
2022-08-17T15:49:23.684Z,7.88
2022-08-17T15:52:25.556Z,9.00
2022-08-17T15:55:14.230Z,7.95
2022-08-17T15:58:01.220Z,7.90
2022-08-17T16:00:53.556Z,8.30
2022-08-17T16:04:03.939Z,8.35
2022-08-17T16:06:51.941Z,8.18
2022-08-17T16:09:38.915Z,7.70
2022-08-17T16:12:26.139Z,8.30
2022-08-17T16:15:13.807Z,8.45
2022-08-17T16:18:00.797Z,8.38
2022-08-17T16:20:48.200Z,8.35
2022-08-17T16:23:35.089Z,8.65
2022-08-17T16:26:23.088Z,8.35
2022-08-17T16:29:10.337Z,9.27
2022-08-17T16:31:57.937Z,8.55
2022-08-17T16:34:44.869Z,8.75
2022-08-17T16:37:34.167Z,8.38
2022-08-17T16:40:23.586Z,8.85
2022-08-17T16:43:11.930Z,8.45
2022-08-17T16:46:00.725Z,8.70
2022-08-17T16:48:47.911Z,9.13
2022-08-17T16:51:35.969Z,9.35
2022-08-17T16:54:22.891Z,7.80
2022-08-17T16:57:11.045Z,7.90
2022-08-17T16:59:58.223Z,8.90
2022-08-17T17:02:47.588Z,9.13
2022-08-17T17:05:44.944Z,8.68
2022-08-17T17:09:02.258Z,8.65
2022-08-17T17:12:01.332Z,9.27
2022-08-17T17:14:51.980Z,8.90
2022-08-17T17:17:40.379Z,9.48
2022-08-17T17:20:38.780Z,9.95
2022-08-17T17:24:03.003Z,9.70
2022-08-17T17:27:10.454Z,10.43
2022-08-17T17:30:24.051Z,9.98
2022-08-17T17:33:19.137Z,9.93
2022-08-17T17:36:48.030Z,9.60
2022-08-17T17:39:44.166Z,9.60
2022-08-17T17:42:32.443Z,10.63
2022-08-17T17:45:34.640Z,10.90
2022-08-17T17:48:21.590Z,10.65
2022-08-17T17:52:06.537Z,9.85
2022-08-17T17:55:13.210Z,10.65
2022-08-17T17:58:35.790Z,10.45
2022-08-17T18:01:34.235Z,9.45
2022-08-17T18:04:38.140Z,9.80
2022-08-17T18:07:42.797Z,10.38
2022-08-17T18:10:35.832Z,9.93
2022-08-17T18:13:50.483Z,10.68
2022-08-17T18:16:42.597Z,9.43
2022-08-17T18:19:31.803Z,9.98
2022-08-17T18:22:21.149Z,10.00
2022-08-17T18:25:43.786Z,10.23
2022-08-17T18:28:40.448Z,9.18
2022-08-17T18:31:28.170Z,9.23
2022-08-17T18:37:48.398Z,9.25
2022-08-17T18:40:37.536Z,9.73
2022-08-17T18:43:52.861Z,10.07
2022-08-17T18:46:40.925Z,9.27
2022-08-17T18:49:28.970Z,9.38
2022-08-17T18:52:23.171Z,8.95
2022-08-17T18:55:24.831Z,9.05
2022-08-17T18:58:20.064Z,9.82
2022-08-17T19:01:18.749Z,8.90
2022-08-17T19:04:12.886Z,9.38
2022-08-17T19:07:21.765Z,8.30
2022-08-17T19:10:30.190Z,7.15
2022-08-17T19:13:24.576Z,8.05
2022-08-17T19:16:31.714Z,8.10
2022-08-17T19:19:38.386Z,7.53
2022-08-17T19:22:50.017Z,5.75
2022-08-17T19:25:44.395Z,6.05
2022-08-17T19:28:44.999Z,5.85
2022-08-17T19:31:35.633Z,5.63
2022-08-17T19:34:29.930Z,5.85
2022-08-17T19:37:36.560Z,6.35
2022-08-17T19:40:53.271Z,6.15
2022-08-17T19:44:07.284Z,6.38
2022-08-17T19:47:13.000Z,7.60
2022-08-17T19:50:09.855Z,7.63
2022-08-17T19:53:07.561Z,7.80
2022-08-17T19:56:15.605Z,7.32
2022-08-17T19:59:48.629Z,6.78
2022-08-17T20:02:59.916Z,7.32
2022-08-17T20:06:13.728Z,7.32
2022-08-17T20:09:19.973Z,7.95
2022-08-17T20:12:20.860Z,8.57
2022-08-17T20:15:10.095Z,7.97
2022-08-17T20:18:00.732Z,8.60
2022-08-17T20:21:20.341Z,9.07
2022-08-17T20:24:18.198Z,8.70
2022-08-17T20:27:31.605Z,8.85
2022-08-17T20:30:37.185Z,9.05
2022-08-17T20:33:35.002Z,9.30
2022-08-17T20:36:24.659Z,8.65
2022-08-17T20:39:52.620Z,8.70
2022-08-17T20:42:42.005Z,8.40
2022-08-17T20:45:49.761Z,8.85
2022-08-17T20:48:42.522Z,7.93
2022-08-17T20:51:34.653Z,5.68
2022-08-17T20:54:42.067Z,6.35
2022-08-17T20:57:32.306Z,6.80
2022-08-17T21:00:42.553Z,5.88
2022-08-17T21:03:47.570Z,7.10
2022-08-17T21:07:51.114Z,6.25
2022-08-17T21:10:39.074Z,6.97
2022-08-17T21:13:44.373Z,6.43
2022-08-17T21:16:45.518Z,7.03
2022-08-17T21:20:11.440Z,5.25
2022-08-17T21:23:51.244Z,6.00
2022-08-17T21:27:16.902Z,5.28
2022-08-17T21:30:07.354Z,4.13
2022-08-17T21:33:18.782Z,4.47
2022-08-17T21:36:13.028Z,4.40
2022-08-17T21:39:06.447Z,4.28
2022-08-17T21:41:56.452Z,5.10
2022-08-17T21:44:49.313Z,4.90
2022-08-17T21:47:43.494Z,4.90
2022-08-17T21:50:30.500Z,4.88
2022-08-17T21:53:28.112Z,4.45
2022-08-17T21:56:29.254Z,4.65
2022-08-17T21:59:27.262Z,4.60
2022-08-17T22:02:24.586Z,4.15
2022-08-17T22:05:14.225Z,3.92
2022-08-17T22:08:18.199Z,4.00
2022-08-17T22:11:05.145Z,4.00
2022-08-17T22:13:52.120Z,3.80
2022-08-17T22:16:48.153Z,4.07
2022-08-17T22:19:36.781Z,3.83
2022-08-17T22:22:34.911Z,4.82
2022-08-17T22:25:23.908Z,4.30
2022-08-17T22:28:12.292Z,4.70
2022-08-17T22:31:04.208Z,4.50
2022-08-17T22:34:14.583Z,4.68
2022-08-17T22:37:21.620Z,5.38
2022-08-17T22:40:26.472Z,5.18
2022-08-17T22:43:13.761Z,4.72
2022-08-17T22:46:00.797Z,6.10
2022-08-17T22:48:57.916Z,6.10
2022-08-17T22:51:45.143Z,5.72
2022-08-17T22:54:50.688Z,5.82
2022-08-17T22:58:03.437Z,5.57
2022-08-17T23:00:52.066Z,5.47
2022-08-17T23:03:54.026Z,5.93
2022-08-17T23:06:44.158Z,5.32
2022-08-17T23:09:31.179Z,6.22
2022-08-17T23:12:26.320Z,6.13
2022-08-17T23:15:17.934Z,6.32
2022-08-17T23:18:05.662Z,6.55
2022-08-17T23:20:53.411Z,6.70
2022-08-17T23:23:40.491Z,7.50
2022-08-17T23:26:27.851Z,7.00
2022-08-17T23:29:14.986Z,7.05
2022-08-17T23:32:05.169Z,7.90
2022-08-17T23:34:52.234Z,7.88
2022-08-17T23:37:41.418Z,7.93
2022-08-17T23:40:29.362Z,6.30
2022-08-17T23:46:19.867Z,7.43
2022-08-17T23:49:06.977Z,7.80
2022-08-17T23:51:54.619Z,8.77
2022-08-17T23:54:46.402Z,8.80
2022-08-17T23:57:35.963Z,8.07
